Time;durP1;ratioP1;P1;durP2;ratioP2;P2;SDS_P1;SDS_P2;PMS_P1;PMS_P2;Temp;Humidity;BMP_temperature;BMP_pressure;BME280_temperature;BME280_humidity;BME280_pressure;Samples;Min_cycle;Max_cycle;Signal;HPM_P1;HPM_P2
2021/01/25 03:32:43;;;;;;;39.85;17.20;;;;;;;0.23;82.03;97213.72;4304406;78;21209;-87
2021/01/25 03:38:44;;;;;;;41.45;18.80;;;;;;;0.31;81.70;97231.59;4201683;84;21189;-85
2021/01/25 03:44:46;;;;;;;40.60;16.07;;;;;;;0.19;82.07;97225.54;4196863;84;21666;-86
2021/01/25 03:50:48;;;;;;;38.00;17.27;;;;;;;0.19;82.07;97225.54;4203042;84;21209;-86
2021/01/25 03:56:50;;;;;;;38.25;15.53;;;;;;;0.16;82.03;97224.31;4206461;84;21222;-85
2021/01/25 04:02:51;;;;;;;35.60;15.60;;;;;;;0.21;82.46;97225.95;4200351;84;21225;-85
2021/01/25 04:08:53;;;;;;;43.78;18.25;;;;;;;0.21;82.49;97219.22;4202012;84;21216;-86
2021/01/25 04:14:55;;;;;;;42.10;20.37;;;;;;;0.26;82.42;97220.30;4197172;84;21222;-85
2021/01/25 04:20:56;;;;;;;46.60;18.37;;;;;;;0.26;82.16;97213.02;4202022;84;21265;-86
2021/01/25 04:26:58;;;;;;;41.65;19.40;;;;;;;0.28;82.28;97219.39;4203791;84;21410;-86
2021/01/25 04:32:59;;;;;;;45.23;19.57;;;;;;;0.26;82.22;97225.13;4200802;84;21399;-85
2021/01/25 04:39:02;;;;;;;39.83;17.73;;;;;;;0.23;81.71;97216.41;4201300;84;21501;-86
2021/01/25 04:45:06;;;;;;;68.95;27.32;;;;;;;0.20;81.53;97219.80;4201801;84;21277;-87
2021/01/25 04:51:11;;;;;;;79.22;32.65;;;;;;;0.18;81.12;97210.50;4201116;84;21368;-86
2021/01/25 04:57:17;;;;;;;137.50;54.25;;;;;;;0.19;81.13;97212.84;4194854;83;21230;-87
2021/01/25 05:03:18;;;;;;;146.13;57.90;;;;;;;0.16;81.08;97207.41;4205097;84;21209;-86
2021/01/25 05:09:20;;;;;;;61.50;25.57;;;;;;;0.18;81.00;97199.73;4204288;84;21335;-86
2021/01/25 05:15:31;;;;;;;40.03;17.82;;;;;;;0.07;81.10;97198.72;4155799;84;21236;-86
2021/01/25 05:21:43;;;;;;;39.15;16.80;;;;;;;0.09;80.94;97209.36;4220476;84;21225;-86
2021/01/25 05:27:45;;;;;;;43.35;20.45;;;;;;;0.07;80.79;97205.45;4215002;84;21237;-87
2021/01/25 05:33:47;;;;;;;45.15;19.52;;;;;;;0.05;80.82;97213.86;4156730;84;21190;-87
2021/01/25 05:39:56;;;;;;;40.60;17.45;;;;;;;-0.10;80.93;97197.19;4218102;84;21213;-87
2021/01/25 05:46:09;;;;;;;47.50;22.02;;;;;;;-0.10;80.93;97197.19;4216783;84;21721;-87
2021/01/25 05:52:15;;;;;;;46.75;23.27;;;;;;;0.01;80.88;97204.95;4216917;82;21213;-87
2021/01/25 05:58:20;;;;;;;50.50;24.10;;;;;;;-0.08;80.77;97201.66;4216164;84;21241;-88
2021/01/25 06:04:38;;;;;;;27.30;16.47;;;;;;;-0.03;81.10;97208.89;4157264;84;21220;-85
2021/01/25 06:11:32;;;;;;;46.25;20.02;;;;;;;-0.05;81.01;97219.80;4219818;84;21234;-87
2021/01/25 06:25:07;;;;;;;49.67;21.68;;;;;;;-0.04;80.88;97230.20;4562540;76;23022;-87
2021/01/25 06:31:20;;;;;;;48.73;22.27;;;;;;;-0.12;81.09;97238.44;4132558;85;21217;-86
2021/01/25 06:37:55;;;;;;;47.30;22.53;;;;;;;-0.22;80.99;97251.84;4069870;84;21224;-86
2021/01/25 06:44:02;;;;;;;50.60;24.60;;;;;;;-0.22;81.52;97242.42;4115825;87;21189;-85
2021/01/25 07:01:14;;;;;;;47.83;28.70;;;;;;;-0.03;81.48;97256.52;4433610;77;38523;-86
2021/01/25 07:07:38;;;;;;;53.70;27.80;;;;;;;0.19;81.01;97261.86;4229589;78;21298;-85
2021/01/25 07:14:05;;;;;;;60.90;28.05;;;;;;;0.19;81.01;97261.86;4149946;83;21890;-86
2021/01/25 07:45:06;;;;;;;;;;;;;;;;;;;;;
2021/01/25 07:51:35;;;;;;;;;;;;;;;;;;;;;
2021/01/25 07:58:00;;;;;;;72.80;33.73;;;;;;;0.19;81.57;97289.53;4411894;80;21213;-85
2021/01/25 08:22:01;;;;;;;78.33;34.53;;;;;;;0.32;81.98;97276.77;4505252;77;22762;-87
2021/01/25 08:28:32;;;;;;;75.85;37.48;;;;;;;0.40;81.99;97274.45;4439557;80;21149;-86
2021/01/25 08:35:07;;;;;;;71.62;35.23;;;;;;;0.40;81.99;97274.45;4450986;80;21153;-86
2021/01/25 08:52:47;;;;;;;82.47;38.70;;;;;;;0.55;81.84;97284.43;4448139;77;22312;-86
2021/01/25 08:59:22;;;;;;;;;;;;;;;;;;;;;
2021/01/25 09:05:52;;;;;;;77.85;35.65;;;;;;;0.59;81.88;97296.05;4622025;76;24013;-87
2021/01/25 09:12:16;;;;;;;73.60;36.83;;;;;;;0.59;81.88;97296.05;4514633;79;21161;-85
2021/01/25 09:18:30;;;;;;;78.97;36.93;;;;;;;0.64;81.72;97303.86;4453071;79;21303;-86
2021/01/25 09:25:00;;;;;;;71.50;33.70;;;;;;;0.65;81.57;97303.52;4400772;80;21203;-86
2021/01/25 09:31:24;;;;;;;78.30;36.03;;;;;;;0.71;81.64;97308.84;4590116;77;23399;-85
2021/01/25 09:37:24;;;;;;;80.80;39.65;;;;;;;0.69;81.69;97313.78;4550130;78;21343;-86
2021/01/25 09:43:26;;;;;;;78.75;36.42;;;;;;;0.68;81.69;97312.79;4551277;78;21153;-86
2021/01/25 09:49:27;;;;;;;76.82;35.75;;;;;;;0.71;81.73;97312.08;4550851;78;21669;-85
2021/01/25 09:55:29;;;;;;;71.00;34.35;;;;;;;0.75;81.73;97305.64;4551448;78;21649;-85
2021/01/25 10:01:31;;;;;;;72.78;34.38;;;;;;;0.80;81.64;97313.45;4551108;78;21157;-86
2021/01/25 10:07:35;;;;;;;71.60;35.52;;;;;;;0.80;81.64;97313.45;4550847;78;21188;-85
2021/01/25 10:13:37;;;;;;;81.85;39.13;;;;;;;0.82;81.87;97318.48;4551769;78;21140;-85
2021/01/25 10:19:38;;;;;;;94.77;39.83;;;;;;;0.83;81.68;97319.48;4457356;77;21415;-86
2021/01/25 10:25:41;;;;;;;82.33;39.80;;;;;;;0.84;81.87;97326.45;4234868;81;21204;-85
2021/01/25 10:32:04;;;;;;;85.12;39.35;;;;;;;0.84;81.88;97327.80;4590238;77;22978;-85
2021/01/25 10:38:06;;;;;;;71.62;37.17;;;;;;;0.72;82.17;97333.28;4551548;78;21622;-86
2021/01/25 10:44:08;;;;;;;81.02;40.83;;;;;;;0.65;82.49;97329.09;4521435;78;21157;-86
2021/01/25 10:50:13;;;;;;;95.53;45.20;;;;;;;0.67;83.05;97331.44;4551745;78;21358;-86
2021/01/25 10:56:16;;;;;;;77.42;41.58;;;;;;;0.67;83.05;97331.44;4551243;78;21173;-86
2021/01/25 11:02:19;;;;;;;84.42;43.85;;;;;;;0.49;83.54;97315.42;4522451;78;21125;-87
2021/01/25 11:08:21;;;;;;;88.60;45.70;;;;;;;0.49;83.54;97315.42;4551147;78;21281;-86
2021/01/25 11:14:23;;;;;;;70.83;35.98;;;;;;;0.66;83.62;97328.53;4549584;78;21149;-86
2021/01/25 11:20:26;;;;;;;82.70;42.48;;;;;;;0.58;84.06;97318.73;4550727;78;21197;-86
2021/01/25 11:26:33;;;;;;;86.47;44.38;;;;;;;0.73;83.87;97337.55;4548669;78;21172;-86
2021/01/25 11:32:35;;;;;;;83.33;42.35;;;;;;;0.73;83.87;97337.55;4556851;78;21656;-85
2021/01/25 11:38:37;;;;;;;81.12;41.15;;;;;;;0.80;84.02;97330.96;4557382;78;21113;-86
2021/01/25 11:44:39;;;;;;;86.28;41.45;;;;;;;0.79;83.81;97331.31;4531982;78;21161;-86
2021/01/25 11:50:41;;;;;;;79.10;40.33;;;;;;;0.83;84.02;97349.11;4474503;79;21130;-86
2021/01/25 11:56:42;;;;;;;82.50;38.42;;;;;;;0.86;84.18;97347.06;4474097;79;21142;-87
2021/01/25 12:02:44;;;;;;;72.65;35.70;;;;;;;0.83;84.37;97328.91;4475090;79;21157;-87
2021/01/25 12:08:50;;;;;;;63.65;33.80;;;;;;;1.00;84.24;97354.70;4474548;79;21169;-85
2021/01/25 12:14:56;;;;;;;61.45;31.23;;;;;;;1.13;84.48;97351.52;4458775;79;21453;-86
2021/01/25 12:20:57;;;;;;;61.80;30.82;;;;;;;1.13;84.48;97351.52;4475013;79;21153;-84
2021/01/25 12:33:33;;;;;;;60.70;29.80;;;;;;;1.14;84.42;97348.27;4479087;77;24838;-86
2021/01/25 12:39:35;;;;;;;58.30;29.18;;;;;;;1.04;84.46;97360.94;4386519;81;21315;-85
2021/01/25 12:51:54;;;;;;;33.63;16.48;;;;;;;1.13;84.63;97373.08;4567849;77;22985;-86
2021/01/25 12:57:58;;;;;;;34.60;15.63;;;;;;;1.16;84.25;97375.66;4453145;79;21153;-85
2021/01/25 13:04:00;;;;;;;28.40;15.90;;;;;;;1.12;84.32;97382.86;4453287;79;21157;-86
2021/01/25 13:10:04;;;;;;;32.53;15.83;;;;;;;1.07;84.01;97389.31;4483698;79;21143;-85
2021/01/25 13:16:08;;;;;;;27.52;14.60;;;;;;;1.02;84.34;97399.56;4484357;79;21125;-87
2021/01/25 13:22:09;;;;;;;33.63;15.70;;;;;;;0.85;84.01;97407.47;4484303;79;21156;-86
2021/01/25 13:28:12;;;;;;;30.25;15.68;;;;;;;0.80;84.46;97427.94;4480635;79;21184;-84
2021/01/25 13:34:16;;;;;;;24.92;13.78;;;;;;;0.71;84.66;97437.31;4484537;79;21907;-85
2021/01/25 13:40:22;;;;;;;31.70;14.60;;;;;;;0.65;84.71;97445.45;4485533;79;21152;-85
2021/01/25 13:46:25;;;;;;;29.12;16.67;;;;;;;0.55;84.94;97444.05;4451144;78;21664;-86
2021/01/25 13:52:28;;;;;;;44.42;20.23;;;;;;;0.55;85.01;97454.06;4445231;80;21296;-86
2021/01/25 13:58:37;;;;;;;47.55;23.52;;;;;;;0.51;85.18;97453.97;4445896;80;21208;-85
2021/01/25 14:04:49;;;;;;;48.23;24.85;;;;;;;0.46;85.55;97458.80;4446549;80;21181;-85
2021/01/25 14:11:16;;;;;;;44.95;24.15;;;;;;;0.38;85.80;97475.89;4407501;80;21184;-85
2021/01/25 14:17:55;;;;;;;55.85;26.05;;;;;;;0.44;86.15;97476.65;4377889;81;23004;-86
2021/01/25 14:24:05;;;;;;;51.75;25.57;;;;;;;0.36;86.25;97478.17;4298848;83;21161;-86
2021/01/25 14:30:18;;;;;;;46.75;22.98;;;;;;;0.30;86.56;97482.25;4299249;83;21168;-86
2021/01/25 14:36:27;;;;;;;54.10;26.20;;;;;;;0.30;86.73;97484.94;4323119;82;21148;-85
2021/01/25 14:42:35;;;;;;;45.92;24.43;;;;;;;0.33;86.95;97507.13;4349291;82;21836;-86
2021/01/25 14:48:42;;;;;;;46.02;24.65;;;;;;;0.33;86.95;97507.13;4349113;82;21497;-87
2021/01/25 14:54:44;;;;;;;49.75;24.32;;;;;;;0.33;87.01;97518.66;4322608;82;21163;-87
2021/01/25 15:07:27;;;;;;;54.25;25.80;;;;;;;0.33;87.30;97531.35;4245856;81;21212;-89
2021/01/25 15:13:34;;;;;;;50.90;24.75;;;;;;;0.33;87.19;97550.20;4289690;80;21591;-89
2021/01/25 15:19:44;;;;;;;52.50;22.32;;;;;;;0.33;87.19;97550.20;4192630;84;21370;-91
2021/01/25 15:26:02;;;;;;;49.98;22.37;;;;;;;0.37;87.30;97562.63;4220736;83;21167;-90
2021/01/25 15:32:08;;;;;;;47.67;21.07;;;;;;;0.39;87.29;97566.31;4130923;83;21225;-86
2021/01/25 15:38:12;;;;;;;39.60;19.10;;;;;;;0.40;87.08;97570.01;4174376;83;21225;-88
2021/01/25 15:44:16;;;;;;;49.15;20.85;;;;;;;0.40;86.91;97581.33;4252114;82;21208;-88
2021/01/25 15:50:19;;;;;;;50.03;24.02;;;;;;;0.40;86.89;97598.27;4195928;83;21142;-88
2021/01/25 16:33:51;;;;;;;;;;;;;;;;;;;;;
2021/01/25 21:34:56;;;;;;;55.10;25.70;;;;;;;0.11;88.31;97881.11;4365866;75;21226;-87
2021/01/25 21:41:35;;;;;;;;;;;;;;;;;;;;;
2021/01/25 21:58:17;;;;;;;;;;;;;;;;;;;;;
2021/01/25 22:15:36;;;;;;;56.55;27.77;;;;;;;0.13;88.27;97920.59;4676610;74;22238;-87
2021/01/25 22:21:48;;;;;;;57.47;27.67;;;;;;;0.08;88.33;97924.06;4444350;78;21131;-86
2021/01/25 22:28:30;;;;;;;52.03;25.87;;;;;;;0.08;88.17;97934.83;4470756;78;21123;-86
2021/01/25 22:35:11;;;;;;;57.23;26.93;;;;;;;0.07;88.17;97938.62;4498325;76;26458;-86
2021/01/25 22:41:39;;;;;;;;;;;;;;;;;;;;;
2021/01/25 22:48:12;;;;;;;56.87;27.20;;;;;;;0.05;88.13;97952.41;4715022;74;22914;-86
2021/01/25 22:54:16;;;;;;;58.63;26.47;;;;;;;-0.01;88.00;97947.80;4604162;75;21303;-87
2021/01/25 23:18:43;;;;;;;55.27;25.40;;;;;;;-0.03;87.67;97968.06;4395916;78;23067;-87
2021/01/25 23:25:59;;;;;;;53.50;25.10;;;;;;;-0.05;87.62;97966.29;4419728;77;28183;-88
2021/01/25 23:39:44;;;;;;;54.03;24.05;;;;;;;-0.09;87.40;97975.57;4524849;77;28179;-86
2021/01/25 23:45:56;;;;;;;54.70;24.50;;;;;;;-0.16;87.12;97983.95;4406975;78;21186;-88
2021/01/25 23:52:57;;;;;;;48.33;21.97;;;;;;;-0.14;87.30;97994.59;4425332;78;25386;-87
2021/01/25 23:59:27;;;;;;;53.30;22.73;;;;;;;-0.19;87.12;97989.98;4337852;80;21432;-86
